Time;durP1;ratioP1;P1;durP2;ratioP2;P2;SDS_P1;SDS_P2;PMS_P1;PMS_P2;Temp;Humidity;BMP_temperature;BMP_pressure;BME280_temperature;BME280_humidity;BME280_pressure;Samples;Min_cycle;Max_cycle;Signal;HPM_P1;HPM_P2
2021/09/18 00:01:40;;;;;;;0.93;0.70;;;24.70;48.50;28.70;93851.00;;;;10390161;28;72458;-70
2021/09/18 00:06:40;;;;;;;1.05;0.88;;;24.60;48.40;28.70;93840.00;;;;10391167;28;74544;-70
2021/09/18 00:11:41;;;;;;;0.95;0.70;;;24.60;48.40;28.70;93849.00;;;;10406456;28;68173;-70
2021/09/18 00:16:42;;;;;;;0.95;0.85;;;24.60;48.40;28.70;93841.00;;;;10390866;28;45896;-71
2021/09/18 00:21:43;;;;;;;0.90;0.80;;;24.60;48.40;28.70;93832.00;;;;10390973;28;75746;-69
2021/09/18 00:26:43;;;;;;;1.40;0.88;;;24.60;48.30;28.70;93836.00;;;;10391292;28;52848;-69
2021/09/18 00:31:44;;;;;;;1.10;0.88;;;24.60;48.40;28.70;93835.00;;;;10389850;28;74169;-70
2021/09/18 00:36:45;;;;;;;1.00;0.80;;;24.60;48.40;28.60;93833.00;;;;10390596;28;74493;-70
2021/09/18 00:41:46;;;;;;;1.35;0.93;;;24.60;48.40;28.70;93834.00;;;;10372469;28;74559;-69
2021/09/18 00:46:50;;;;;;;1.30;0.88;;;24.60;48.40;28.60;93846.00;;;;10405386;28;73341;-69
2021/09/18 00:51:51;;;;;;;1.10;0.90;;;24.60;48.40;28.60;93829.00;;;;10392371;28;45365;-70
2021/09/18 00:56:55;;;;;;;1.20;0.90;;;24.60;48.40;28.60;93830.00;;;;10379968;28;53499;-70
2021/09/18 01:01:55;;;;;;;1.13;0.98;;;24.60;48.30;28.60;93828.00;;;;10392611;28;46537;-70
2021/09/18 01:06:56;;;;;;;1.05;0.80;;;24.60;48.40;28.60;93836.00;;;;10410085;28;74297;-69
2021/09/18 01:11:58;;;;;;;1.60;0.95;;;24.60;48.30;28.60;93824.00;;;;10396025;28;74496;-70
2021/09/18 01:16:59;;;;;;;1.17;0.90;;;24.60;48.30;28.60;93829.00;;;;10379446;28;47280;-70
2021/09/18 01:22:03;;;;;;;1.92;1.00;;;24.60;48.30;28.60;93824.00;;;;10395569;28;46376;-69
2021/09/18 01:27:04;;;;;;;1.67;1.02;;;24.60;48.30;28.60;93823.00;;;;10378752;28;54164;-70
2021/09/18 01:32:05;;;;;;;0.98;0.70;;;24.60;48.30;28.60;93827.00;;;;10394618;28;75768;-70
2021/09/18 01:37:06;;;;;;;1.13;0.93;;;24.60;48.30;28.60;93813.00;;;;10395924;28;54442;-69
2021/09/18 01:42:07;;;;;;;1.00;0.80;;;24.60;48.20;28.60;93815.00;;;;10395440;28;74358;-69
2021/09/18 01:47:07;;;;;;;1.25;0.85;;;24.50;48.20;28.60;93815.00;;;;10377185;28;74452;-70
2021/09/18 01:52:19;;;;;;;1.55;1.05;;;24.50;48.20;28.60;93824.00;;;;10394062;28;73014;-70
2021/09/18 01:57:20;;;;;;;1.02;0.85;;;24.50;48.10;28.60;93820.00;;;;10379824;28;47317;-70
2021/09/18 02:02:21;;;;;;;1.60;1.00;;;24.50;48.10;28.60;93828.00;;;;10409828;28;73889;-70
2021/09/18 02:07:21;;;;;;;1.20;0.73;;;24.50;48.10;28.60;93821.00;;;;10409605;28;74391;-70
2021/09/18 02:12:22;;;;;;;1.95;0.82;;;24.50;48.10;28.60;93803.00;;;;10376323;28;75141;-69
2021/09/18 02:17:23;;;;;;;0.90;0.75;;;24.50;48.00;28.50;93817.00;;;;10377316;28;47494;-70
2021/09/18 02:22:23;;;;;;;1.10;0.77;;;24.50;48.10;28.50;93812.00;;;;10393695;28;55838;-69
2021/09/18 02:27:24;;;;;;;0.70;0.70;;;24.50;48.00;28.50;93811.00;;;;10376786;28;56634;-70
2021/09/18 02:32:25;;;;;;;1.20;0.90;;;24.50;48.00;28.50;93798.00;;;;10375732;28;74996;-70
2021/09/18 02:37:26;;;;;;;1.17;0.65;;;24.50;48.00;28.50;93807.00;;;;10375684;28;54851;-70
2021/09/18 02:42:26;;;;;;;0.75;0.68;;;24.50;48.00;28.50;93796.00;;;;10391481;28;74441;-70
2021/09/18 02:47:27;;;;;;;1.15;0.80;;;24.50;48.00;28.50;93799.00;;;;10376567;28;47190;-70
2021/09/18 02:52:28;;;;;;;1.10;0.82;;;24.50;48.00;28.50;93785.00;;;;10375572;28;74168;-70
2021/09/18 02:57:28;;;;;;;0.70;0.60;;;24.50;48.00;28.50;93799.00;;;;10391982;28;73368;-69
2021/09/18 03:02:29;;;;;;;0.90;0.70;;;24.50;48.60;28.50;93780.00;;;;10392483;28;45437;-70
2021/09/18 03:07:30;;;;;;;0.50;0.50;;;24.50;48.00;28.50;93791.00;;;;10393622;28;61113;-70
2021/09/18 03:12:30;;;;;;;0.77;0.63;;;24.50;47.90;28.50;93782.00;;;;10391830;28;52527;-70
2021/09/18 03:17:31;;;;;;;0.65;0.60;;;24.50;47.90;28.50;93774.00;;;;10392083;28;74174;-70
2021/09/18 03:22:32;;;;;;;0.70;0.65;;;24.50;47.90;28.50;93781.00;;;;10390855;28;74350;-69
2021/09/18 03:27:33;;;;;;;1.00;0.80;;;24.50;47.80;28.50;93779.00;;;;10406983;28;74264;-70
2021/09/18 03:32:34;;;;;;;0.95;0.70;;;24.50;47.90;28.50;93782.00;;;;10375201;28;47344;-70
2021/09/18 03:37:35;;;;;;;0.70;0.60;;;24.50;47.80;28.50;93777.00;;;;10391073;28;61644;-70
2021/09/18 03:42:36;;;;;;;1.58;0.70;;;24.50;47.80;28.40;93765.00;;;;10391177;28;45567;-70
2021/09/18 03:47:38;;;;;;;0.70;0.60;;;24.50;47.90;28.40;93771.00;;;;10390843;28;45624;-69
2021/09/18 03:52:39;;;;;;;1.35;0.60;;;24.40;48.50;28.40;93779.00;;;;10375068;28;47331;-70
2021/09/18 03:57:40;;;;;;;0.80;0.70;;;24.40;47.90;28.40;93767.00;;;;10391481;28;63193;-70
2021/09/18 04:02:40;;;;;;;0.57;0.57;;;24.40;47.80;28.40;93777.00;;;;10390542;28;46031;-70
2021/09/18 04:07:41;;;;;;;0.70;0.70;;;24.40;47.80;28.40;93772.00;;;;10392179;28;46387;-69
2021/09/18 04:12:42;;;;;;;0.50;0.50;;;24.40;47.80;28.40;93768.00;;;;10389817;28;74594;-71
2021/09/18 04:17:42;;;;;;;0.80;0.70;;;24.40;47.90;28.40;93771.00;;;;10373031;28;75390;-69
2021/09/18 04:22:43;;;;;;;0.55;0.52;;;24.40;47.90;28.40;93776.00;;;;10406045;28;74738;-70
2021/09/18 04:27:44;;;;;;;0.60;0.60;;;24.40;47.90;28.40;93780.00;;;;10376733;28;76120;-70
2021/09/18 04:32:45;;;;;;;0.70;0.70;;;24.40;47.90;28.40;93785.00;;;;10397687;28;45452;-70
2021/09/18 04:37:46;;;;;;;0.50;0.50;;;24.40;47.90;28.40;93780.00;;;;10397223;28;45456;-70
2021/09/18 04:42:47;;;;;;;0.80;0.60;;;24.40;47.90;28.40;93784.00;;;;10395926;28;75782;-70
2021/09/18 04:47:47;;;;;;;1.25;0.57;;;24.40;47.90;28.40;93786.00;;;;10395784;28;74584;-70
2021/09/18 04:52:48;;;;;;;0.60;0.57;;;24.40;47.80;28.40;93775.00;;;;10379022;28;75630;-69
2021/09/18 04:57:49;;;;;;;0.70;0.60;;;24.40;47.80;28.40;93784.00;;;;10395691;28;75639;-70
2021/09/18 05:02:49;;;;;;;0.60;0.60;;;24.40;47.80;28.40;93777.00;;;;10379471;28;75265;-70
2021/09/18 05:07:50;;;;;;;1.08;0.70;;;24.40;47.80;28.40;93798.00;;;;10379091;28;75331;-70
2021/09/18 05:12:51;;;;;;;0.95;0.60;;;24.40;47.80;28.40;93792.00;;;;10396301;28;45404;-70
2021/09/18 05:17:52;;;;;;;0.63;0.57;;;24.40;47.70;28.40;93796.00;;;;10395918;28;45384;-70
2021/09/18 05:22:53;;;;;;;0.68;0.50;;;24.40;47.70;28.40;93796.00;;;;10377860;28;74129;-70
2021/09/18 05:27:54;;;;;;;0.60;0.52;;;24.40;47.70;28.40;93796.00;;;;10378730;28;47085;-70
2021/09/18 05:32:56;;;;;;;0.50;0.50;;;24.40;47.70;28.40;93792.00;;;;10395507;28;45366;-69
2021/09/18 05:37:56;;;;;;;0.80;0.57;;;24.40;47.70;28.40;93794.00;;;;10377605;28;47010;-69
2021/09/18 05:42:57;;;;;;;0.70;0.60;;;24.40;47.70;28.40;93805.00;;;;10377136;28;74279;-69
2021/09/18 05:47:58;;;;;;;0.73;0.50;;;24.40;47.70;28.40;93805.00;;;;10376773;28;74588;-69
2021/09/18 05:52:58;;;;;;;0.50;0.50;;;24.40;47.70;28.40;93813.00;;;;10394856;28;74218;-69
2021/09/18 05:57:59;;;;;;;0.80;0.47;;;24.40;47.60;28.40;93813.00;;;;10392755;28;54132;-69
2021/09/18 06:03:00;;;;;;;1.35;0.60;;;24.40;47.60;28.40;93825.00;;;;10394481;28;46352;-69
2021/09/18 06:08:00;;;;;;;0.32;0.32;;;24.40;47.60;28.40;93834.00;;;;10376464;28;75306;-69
2021/09/18 06:13:01;;;;;;;0.60;0.50;;;24.40;47.60;28.40;93837.00;;;;10408716;28;75309;-69
2021/09/18 06:18:02;;;;;;;0.57;0.57;;;24.40;47.60;28.40;93842.00;;;;10392464;28;45620;-69
2021/09/18 06:23:02;;;;;;;0.50;0.50;;;24.40;47.50;28.40;93826.00;;;;10392493;28;75401;-69
2021/09/18 06:28:04;;;;;;;0.80;0.60;;;24.40;47.50;28.40;93827.00;;;;10393900;28;56036;-69
2021/09/18 06:33:06;;;;;;;0.80;0.50;;;24.40;47.50;28.40;93836.00;;;;10400628;28;53702;-69
2021/09/18 06:38:07;;;;;;;0.60;0.50;;;24.40;47.50;28.40;93842.00;;;;10434012;28;75769;-69
2021/09/18 06:43:08;;;;;;;0.60;0.55;;;24.40;47.50;28.40;93831.00;;;;10432386;28;75697;-69
2021/09/18 06:48:10;;;;;;;0.50;0.50;;;24.40;47.60;28.40;93833.00;;;;10433740;28;46750;-69
2021/09/18 06:53:11;;;;;;;0.60;0.60;;;24.40;47.50;28.40;93839.00;;;;10434619;28;45319;-69
2021/09/18 06:58:12;;;;;;;0.93;0.75;;;24.40;47.50;28.40;93843.00;;;;10435837;28;45451;-69
2021/09/18 07:03:12;;;;;;;0.98;0.60;;;24.30;47.50;28.40;93840.00;;;;10434449;28;45360;-68
2021/09/18 07:08:13;;;;;;;1.10;0.90;;;24.40;47.60;28.30;93853.00;;;;10434321;28;46596;-70
2021/09/18 07:13:14;;;;;;;1.98;0.90;;;24.40;46.90;28.40;93861.00;;;;10415498;28;75126;-71
2021/09/18 07:18:14;;;;;;;2.08;0.90;;;24.40;47.70;28.40;93860.00;;;;10415042;28;66136;-71
2021/09/18 07:23:15;;;;;;;1.55;0.98;;;24.40;47.40;28.40;93861.00;;;;10416986;28;47981;-70
2021/09/18 07:28:16;;;;;;;1.30;0.80;;;24.30;47.30;28.40;93850.00;;;;10432355;28;74015;-71
2021/09/18 07:33:17;;;;;;;1.88;0.90;;;24.40;47.90;28.40;93864.00;;;;10432761;28;74360;-70
2021/09/18 07:38:17;;;;;;;3.50;0.80;;;24.40;47.20;28.40;93870.00;;;;10432491;28;74275;-70
2021/09/18 07:43:18;;;;;;;1.65;0.90;;;24.30;47.10;28.40;93857.00;;;;10431976;28;74188;-72
2021/09/18 07:48:19;;;;;;;1.20;0.70;;;24.40;47.20;28.40;93856.00;;;;10415063;28;74738;-71
2021/09/18 07:53:19;;;;;;;1.65;0.90;;;24.40;47.80;28.40;93862.00;;;;10432868;28;45563;-71
2021/09/18 07:58:20;;;;;;;0.85;0.73;;;24.40;47.10;28.40;93873.00;;;;10431318;28;74156;-70
2021/09/18 08:03:21;;;;;;;2.50;1.08;;;24.40;47.10;28.40;93866.00;;;;10437782;28;75377;-69
2021/09/18 08:08:22;;;;;;;1.73;0.77;;;24.40;47.30;28.40;93882.00;;;;10438873;28;65688;-68
2021/09/18 08:13:22;;;;;;;2.83;0.85;;;24.40;47.30;28.40;93873.00;;;;10438388;28;74174;-68
2021/09/18 08:18:23;;;;;;;2.90;0.90;;;24.40;47.20;28.40;93881.00;;;;10422436;28;47807;-69
2021/09/18 08:23:24;;;;;;;2.25;1.00;;;24.40;47.20;28.40;93886.00;;;;10421272;28;74241;-68
2021/09/18 08:28:24;;;;;;;2.25;0.90;;;24.40;47.20;28.40;93871.00;;;;10421330;28;74287;-68
2021/09/18 08:33:25;;;;;;;1.48;0.90;;;24.40;47.20;28.40;93869.00;;;;10438073;28;75666;-68
2021/09/18 08:38:26;;;;;;;1.65;0.68;;;24.40;47.10;28.40;93881.00;;;;10440222;28;50853;-68
2021/09/18 08:43:27;;;;;;;1.00;0.75;;;24.40;47.20;28.40;93890.00;;;;10421277;28;46986;-67
2021/09/18 08:48:28;;;;;;;1.38;0.85;;;24.40;47.20;28.40;93896.00;;;;10437362;28;75383;-68
2021/09/18 08:53:29;;;;;;;0.90;0.70;;;24.40;47.20;28.40;93879.00;;;;10421092;28;48239;-68
2021/09/18 08:58:30;;;;;;;1.65;0.88;;;24.40;47.20;28.40;93890.00;;;;10421109;28;47283;-67
2021/09/18 09:03:36;;;;;;;1.15;0.73;;;24.40;47.20;28.40;93886.00;;;;10437431;28;57564;-68
2021/09/18 09:08:40;;;;;;;0.77;0.73;;;24.40;47.20;28.40;93886.00;;;;10437751;28;46181;-68
2021/09/18 09:14:10;;;;;;;1.33;0.80;;;24.40;47.20;28.50;93887.00;;;;10436839;28;45581;-68
2021/09/18 09:19:16;;;;;;;2.20;0.70;;;24.40;47.20;28.40;93882.00;;;;10420933;28;48572;-68
2021/09/18 09:24:23;;;;;;;1.83;0.80;;;24.40;47.10;28.40;93887.00;;;;10437099;28;45373;-68
2021/09/18 09:29:44;;;;;;;;;;;24.40;47.20;28.90;93884.00;;;;10437941;28;45585;-68
2021/09/18 09:34:52;;;;;;;0.70;0.70;;;24.40;47.20;28.40;93875.00;;;;10438664;28;45585;-68
2021/09/18 09:39:56;;;;;;;1.65;0.70;;;24.40;47.20;28.40;93888.00;;;;10436634;28;45394;-68
2021/09/18 09:45:16;;;;;;;1.25;0.85;;;24.40;47.20;28.50;93871.00;;;;10435858;28;45378;-68
2021/09/18 09:50:19;;;;;;;0.93;0.68;;;24.40;47.30;28.40;93873.00;;;;10419286;28;47227;-68
2021/09/18 09:55:20;;;;;;;1.23;0.80;;;24.40;47.30;28.40;93872.00;;;;10436432;28;46361;-68
2021/09/18 10:00:21;;;;;;;2.05;0.80;;;24.40;47.30;28.40;93863.00;;;;10418824;28;51202;-68
2021/09/18 10:05:22;;;;;;;2.15;0.80;;;24.40;47.40;28.30;93863.00;;;;10414664;28;75843;-71
2021/09/18 10:10:23;;;;;;;3.42;0.88;;;24.50;47.60;28.40;93855.00;;;;10460723;28;64359;-73
2021/09/18 10:15:28;;;;;;;1.27;0.80;;;24.50;47.70;28.40;93858.00;;;;10424028;28;45556;-71
2021/09/18 10:26:13;;;;;;;1.45;0.95;;;24.60;47.70;28.50;93850.00;;;;10457073;28;45967;-69
2021/09/18 10:31:23;;;;;;;2.13;0.85;;;24.60;47.70;28.50;93866.00;;;;10391993;28;45173;-70
2021/09/18 10:36:30;;;;;;;1.70;0.80;;;24.60;47.90;28.50;93855.00;;;;10390290;28;47000;-69
2021/09/18 10:41:48;;;;;;;1.33;1.00;;;24.60;47.80;28.60;93855.00;;;;10390169;28;48187;-69
2021/09/18 10:46:59;;;;;;;2.33;1.02;;;24.60;47.90;28.60;93846.00;;;;10390812;28;47680;-70
2021/09/18 10:52:24;;;;;;;2.67;1.10;;;24.60;47.90;28.60;93849.00;;;;10392131;28;45652;-72
2021/09/18 10:57:25;;;;;;;1.77;0.77;;;24.60;48.00;28.50;93852.00;;;;10401630;28;45660;-72
2021/09/18 11:02:32;;;;;;;1.60;1.10;;;24.70;47.80;28.60;93842.00;;;;10392883;28;47853;-72
2021/09/18 11:07:50;;;;;;;1.33;0.90;;;24.70;47.80;28.70;93843.00;;;;10395800;28;47111;-72
2021/09/18 11:13:10;;;;;;;2.45;1.00;;;24.70;48.00;28.70;93835.00;;;;10433701;28;47237;-71
2021/09/18 11:18:38;;;;;;;1.40;0.90;;;24.80;48.00;28.80;93828.00;;;;10434152;28;47260;-72
2021/09/18 11:24:02;;;;;;;1.83;0.90;;;24.70;48.00;28.80;93845.00;;;;10434170;28;45615;-70
2021/09/18 11:29:33;;;;;;;2.47;0.82;;;24.70;48.10;28.80;93829.00;;;;10440412;28;45415;-69
2021/09/18 11:34:55;;;;;;;1.50;0.90;;;24.70;48.10;28.80;93823.00;;;;10436949;28;45550;-71
2021/09/18 11:40:07;;;;;;;1.20;0.90;;;24.70;48.10;28.70;93833.00;;;;10475219;28;46318;-70
2021/09/18 11:45:23;;;;;;;2.72;0.85;;;24.70;48.80;28.80;93836.00;;;;10457252;28;47703;-69
2021/09/18 11:50:30;;;;;;;1.92;0.88;;;24.70;48.10;28.70;93837.00;;;;10459375;28;46765;-72
2021/09/18 11:55:47;;;;;;;1.55;1.02;;;24.80;48.10;28.80;93838.00;;;;10435991;28;48082;-70
2021/09/18 12:00:57;;;;;;;2.25;0.80;;;24.80;47.90;28.70;93825.00;;;;10443463;28;46145;-75
2021/09/18 12:06:12;;;;;;;1.80;0.80;;;24.80;48.00;28.80;93829.00;;;;10396237;28;48425;-72
2021/09/18 12:11:19;;;;;;;1.02;0.90;;;24.90;48.10;28.80;93828.00;;;;10398877;28;45430;-76
2021/09/18 12:16:37;;;;;;;1.27;0.73;;;24.90;48.10;28.90;93808.00;;;;10391369;28;47384;-76
2021/09/18 12:21:39;;;;;;;2.22;0.77;;;24.90;48.10;28.90;93822.00;;;;10408573;28;54434;-75
2021/09/18 12:26:41;;;;;;;1.80;0.90;;;24.90;48.20;28.90;93817.00;;;;10422685;28;46992;-70
2021/09/18 12:31:47;;;;;;;1.73;1.05;;;24.90;48.30;28.90;93806.00;;;;10413574;28;68258;-73
2021/09/18 12:36:49;;;;;;;1.95;0.73;;;25.00;48.20;29.00;93811.00;;;;10417239;28;46670;-71
2021/09/18 12:41:49;;;;;;;1.77;0.77;;;25.00;47.60;29.00;93806.00;;;;10405241;28;47108;-75
2021/09/18 12:46:51;;;;;;;1.90;0.82;;;25.00;47.50;29.00;93787.00;;;;10430448;28;75042;-70
2021/09/18 12:52:02;;;;;;;0.70;0.70;;;25.00;47.60;29.00;93792.00;;;;10438038;28;45522;-70
2021/09/18 12:57:07;;;;;;;1.38;0.77;;;25.00;47.70;29.00;93803.00;;;;10438537;28;46305;-70
2021/09/18 13:02:08;;;;;;;0.80;0.70;;;25.00;47.70;29.00;93792.00;;;;10420272;28;57615;-70
2021/09/18 13:07:10;;;;;;;0.98;0.68;;;25.00;47.60;29.00;93784.00;;;;10419805;28;53810;-69
2021/09/18 13:12:14;;;;;;;1.02;0.80;;;24.90;47.60;29.00;93792.00;;;;10419981;28;55321;-70
2021/09/18 13:17:20;;;;;;;1.13;0.80;;;25.00;47.70;29.00;93791.00;;;;10436628;28;48091;-70
2021/09/18 13:22:37;;;;;;;2.05;0.80;;;25.00;47.60;29.10;93776.00;;;;10436955;28;45352;-70
2021/09/18 13:27:40;;;;;;;;;;;25.00;47.60;29.60;93774.00;;;;10437156;28;46339;-70
2021/09/18 13:32:41;;;;;;;0.82;0.75;;;25.00;47.60;29.10;93779.00;;;;10436215;28;45457;-69
2021/09/18 13:37:42;;;;;;;1.25;0.75;;;25.00;47.50;29.10;93766.00;;;;10435772;28;75697;-70
2021/09/18 13:42:42;;;;;;;1.60;1.00;;;25.00;47.60;29.10;93778.00;;;;10435925;28;73309;-70
2021/09/18 13:47:43;;;;;;;1.05;0.90;;;25.00;47.60;29.10;93770.00;;;;10434743;28;73300;-70
2021/09/18 13:52:44;;;;;;;2.15;0.80;;;25.00;47.60;29.10;93766.00;;;;10417834;28;75548;-70
2021/09/18 13:57:45;;;;;;;1.00;0.70;;;25.00;47.60;29.10;93765.00;;;;10434815;28;68859;-70
2021/09/18 14:02:45;;;;;;;0.90;0.68;;;25.00;47.50;29.10;93757.00;;;;10433860;28;73775;-70
2021/09/18 14:07:46;;;;;;;0.90;0.80;;;25.00;47.60;29.10;93759.00;;;;10434864;28;74206;-70
2021/09/18 14:12:47;;;;;;;1.30;0.80;;;25.00;47.60;29.10;93752.00;;;;10434667;28;52724;-70
2021/09/18 14:17:48;;;;;;;0.85;0.75;;;25.00;47.60;29.10;93753.00;;;;10433891;28;65866;-70
2021/09/18 14:22:49;;;;;;;0.90;0.60;;;25.00;47.60;29.10;93750.00;;;;10434637;28;45325;-70
2021/09/18 14:27:50;;;;;;;1.02;0.68;;;25.00;47.50;29.10;93739.00;;;;10434917;28;74578;-70
2021/09/18 14:32:51;;;;;;;0.70;0.55;;;25.00;47.50;29.10;93730.00;;;;10434400;28;74374;-70
2021/09/18 14:37:51;;;;;;;0.70;0.60;;;25.00;47.50;29.10;93732.00;;;;10432946;28;73944;-70
2021/09/18 14:42:52;;;;;;;1.02;0.70;;;25.00;47.60;29.10;93726.00;;;;10433218;28;58586;-70
2021/09/18 14:47:53;;;;;;;0.88;0.80;;;25.10;47.70;29.10;93723.00;;;;10434629;28;47209;-70
2021/09/18 14:52:53;;;;;;;1.25;0.60;;;25.10;47.60;29.10;93711.00;;;;10433028;28;68351;-70
2021/09/18 14:57:54;;;;;;;1.13;0.80;;;25.00;47.60;29.10;93704.00;;;;10415238;28;73343;-70
2021/09/18 15:02:55;;;;;;;1.33;0.80;;;25.10;47.60;29.20;93715.00;;;;10433352;28;47050;-70
2021/09/18 15:07:56;;;;;;;1.42;0.80;;;25.10;47.70;29.20;93703.00;;;;10433790;28;47088;-70
2021/09/18 15:12:56;;;;;;;0.80;0.70;;;25.10;47.60;29.20;93708.00;;;;10432512;28;75426;-69
2021/09/18 15:17:57;;;;;;;0.93;0.80;;;25.10;47.60;29.20;93707.00;;;;10434099;28;75579;-70
2021/09/18 15:23:02;;;;;;;0.93;0.80;;;25.10;47.70;29.20;93702.00;;;;10433511;28;53577;-70
2021/09/18 15:28:03;;;;;;;0.82;0.70;;;25.10;47.60;29.20;93697.00;;;;10432488;28;45538;-70
2021/09/18 15:33:04;;;;;;;1.10;0.70;;;25.10;47.60;29.20;93689.00;;;;10432166;28;55655;-70
2021/09/18 15:38:04;;;;;;;0.57;0.57;;;25.10;47.60;29.20;93691.00;;;;10423226;28;62148;-76
2021/09/18 15:43:05;;;;;;;0.68;0.63;;;25.20;47.50;29.20;93677.00;;;;10430306;28;74320;-74
2021/09/18 15:48:06;;;;;;;0.60;0.57;;;25.20;47.20;29.20;93688.00;;;;10419859;28;45348;-75
2021/09/18 15:53:09;;;;;;;1.05;0.82;;;25.20;47.30;29.30;93681.00;;;;10388051;28;45374;-71
2021/09/18 15:58:10;;;;;;;0.95;0.68;;;25.20;47.40;29.30;93684.00;;;;10426038;28;47681;-70
2021/09/18 16:03:11;;;;;;;0.90;0.70;;;25.20;47.40;29.30;93688.00;;;;10423586;28;75655;-70
2021/09/18 16:08:12;;;;;;;0.60;0.52;;;25.20;47.20;29.30;93688.00;;;;10430404;28;47223;-70
2021/09/18 16:13:12;;;;;;;1.00;0.57;;;25.20;47.40;29.20;93672.00;;;;10428898;28;75097;-70
2021/09/18 16:18:13;;;;;;;1.67;0.70;;;25.20;47.50;29.20;93677.00;;;;10428865;28;75363;-74
2021/09/18 16:23:14;;;;;;;0.95;0.60;;;25.20;47.40;29.20;93684.00;;;;10434005;28;74537;-74
2021/09/18 16:28:15;;;;;;;1.13;0.70;;;25.20;47.60;29.20;93679.00;;;;10435711;28;51850;-75
2021/09/18 16:33:16;;;;;;;1.40;0.70;;;25.20;47.50;29.20;93672.00;;;;10435817;28;45395;-76
2021/09/18 16:38:16;;;;;;;1.10;0.80;;;25.20;47.50;29.20;93672.00;;;;10436815;28;74172;-75
2021/09/18 16:43:17;;;;;;;1.00;0.70;;;25.10;47.50;29.20;93676.00;;;;10437963;28;72817;-75
2021/09/18 16:48:19;;;;;;;0.63;0.63;;;25.10;47.50;29.20;93680.00;;;;10423714;28;75539;-74
2021/09/18 16:53:19;;;;;;;1.67;0.60;;;25.20;47.60;29.20;93676.00;;;;10436374;28;45445;-74
2021/09/18 16:58:20;;;;;;;1.77;0.70;;;25.10;47.50;29.20;93688.00;;;;10414522;28;75239;-71
2021/09/18 17:03:21;;;;;;;0.50;0.50;;;25.10;47.60;29.20;93684.00;;;;10434165;28;46626;-70
2021/09/18 17:08:22;;;;;;;0.65;0.65;;;25.20;48.00;29.20;93679.00;;;;10418575;28;74419;-69
2021/09/18 17:13:22;;;;;;;0.73;0.60;;;25.20;48.00;29.20;93676.00;;;;10419070;28;67920;-69
2021/09/18 17:18:23;;;;;;;0.70;0.70;;;25.10;48.00;29.10;93686.00;;;;10435328;28;67783;-70
2021/09/18 17:23:24;;;;;;;0.80;0.77;;;25.10;47.90;29.10;93685.00;;;;10418332;28;73759;-70
2021/09/18 17:28:24;;;;;;;0.80;0.70;;;25.10;47.90;29.10;93684.00;;;;10419176;28;63546;-70
2021/09/18 17:33:25;;;;;;;2.42;0.75;;;25.10;48.00;29.10;93689.00;;;;10434139;28;75073;-69
2021/09/18 17:38:28;;;;;;;1.05;0.70;;;25.00;47.90;29.00;93680.00;;;;10436656;28;48931;-69
2021/09/18 17:43:28;;;;;;;1.73;0.70;;;25.00;47.90;29.00;93698.00;;;;10436048;28;46326;-69
2021/09/18 17:48:29;;;;;;;1.13;0.65;;;25.00;47.90;29.00;93680.00;;;;10417681;28;59270;-70
2021/09/18 17:53:30;;;;;;;1.50;0.80;;;25.00;48.00;29.00;93685.00;;;;10417759;28;66636;-69
2021/09/18 17:58:31;;;;;;;1.55;0.70;;;25.00;48.00;29.00;93695.00;;;;10434643;28;74255;-70
2021/09/18 18:03:31;;;;;;;1.27;0.70;;;25.00;48.00;29.00;93684.00;;;;10417479;28;74754;-69
2021/09/18 18:08:32;;;;;;;4.95;1.00;;;25.00;48.00;29.00;93684.00;;;;10417070;28;70588;-69
2021/09/18 18:13:33;;;;;;;0.85;0.65;;;25.00;48.00;29.00;93689.00;;;;10408449;28;75078;-69
2021/09/18 18:18:34;;;;;;;1.67;0.65;;;25.00;48.00;29.00;93692.00;;;;10376166;28;46647;-69
2021/09/18 18:23:35;;;;;;;0.70;0.60;;;24.90;48.00;29.00;93698.00;;;;10394547;28;74630;-70
2021/09/18 18:28:38;;;;;;;3.55;0.82;;;25.00;48.00;29.00;93694.00;;;;10426135;28;45620;-70
2021/09/18 18:33:39;;;;;;;2.00;0.70;;;24.90;48.00;28.90;93704.00;;;;10433754;28;46478;-70
2021/09/18 18:38:40;;;;;;;0.63;0.63;;;24.90;48.10;29.00;93713.00;;;;10432406;28;56715;-71
2021/09/18 18:43:41;;;;;;;1.05;0.75;;;24.90;48.10;28.90;93717.00;;;;10461863;28;45410;-70
2021/09/18 18:48:41;;;;;;;0.82;0.65;;;24.90;48.00;28.90;93700.00;;;;10490236;28;74428;-70
2021/09/18 18:53:42;;;;;;;1.00;0.60;;;24.90;48.10;28.90;93713.00;;;;10490730;28;66898;-70
2021/09/18 18:58:43;;;;;;;0.80;0.80;;;24.90;48.10;28.90;93703.00;;;;10492082;28;74533;-70
2021/09/18 19:03:43;;;;;;;0.95;0.60;;;24.90;48.10;28.90;93696.00;;;;10491769;28;73981;-70
2021/09/18 19:08:44;;;;;;;1.23;0.70;;;24.90;48.10;28.90;93710.00;;;;10493584;28;45533;-70
2021/09/18 19:13:45;;;;;;;0.88;0.70;;;24.90;48.20;28.90;93698.00;;;;10492492;28;46702;-71
2021/09/18 19:18:46;;;;;;;0.93;0.77;;;24.90;48.20;28.90;93707.00;;;;10472469;28;47095;-71
2021/09/18 19:23:46;;;;;;;0.98;0.70;;;24.90;48.20;28.90;93719.00;;;;10467658;28;47145;-70
2021/09/18 19:28:47;;;;;;;1.33;0.85;;;24.80;48.10;28.90;93716.00;;;;10483045;28;45428;-70
2021/09/18 19:33:48;;;;;;;0.95;0.88;;;24.90;48.20;28.90;93718.00;;;;10486907;28;45311;-71
2021/09/18 19:38:48;;;;;;;1.50;0.90;;;24.90;48.20;28.90;93723.00;;;;10483615;28;75830;-70
2021/09/18 19:43:49;;;;;;;0.80;0.70;;;24.90;48.20;28.90;93715.00;;;;10474360;28;75499;-70
2021/09/18 19:48:50;;;;;;;1.20;0.80;;;24.90;48.20;28.90;93717.00;;;;10489263;28;45295;-70
2021/09/18 19:53:51;;;;;;;0.95;0.80;;;24.80;48.10;28.90;93712.00;;;;10468665;28;74223;-70
2021/09/18 19:58:52;;;;;;;1.10;0.60;;;24.90;48.20;28.90;93709.00;;;;10472978;28;45415;-70
2021/09/18 20:03:53;;;;;;;1.23;0.80;;;24.80;48.20;28.90;93713.00;;;;10456955;28;47175;-69
2021/09/18 20:08:55;;;;;;;1.23;0.90;;;24.80;48.10;28.90;93710.00;;;;10471461;28;74275;-70
2021/09/18 20:13:56;;;;;;;1.25;0.80;;;24.80;48.10;28.90;93702.00;;;;10472257;28;48422;-70
2021/09/18 20:18:57;;;;;;;1.10;0.80;;;24.80;48.20;28.80;93697.00;;;;10471654;28;74391;-69
2021/09/18 20:23:57;;;;;;;2.03;1.00;;;24.80;48.10;28.80;93692.00;;;;10454393;28;73813;-70
2021/09/18 20:28:58;;;;;;;1.27;0.80;;;24.80;48.10;28.90;93677.00;;;;10453911;28;74575;-70
2021/09/18 20:33:59;;;;;;;1.27;0.80;;;24.80;48.00;28.80;93690.00;;;;10454920;28;74664;-69
2021/09/18 20:39:00;;;;;;;1.25;0.73;;;24.80;48.00;28.80;93685.00;;;;10472196;28;46189;-70
2021/09/18 20:44:00;;;;;;;1.10;0.73;;;24.80;48.00;28.80;93673.00;;;;10473286;28;45469;-69
2021/09/18 20:49:01;;;;;;;1.05;0.93;;;24.80;48.00;28.80;93666.00;;;;10454063;28;73136;-70
2021/09/18 20:54:02;;;;;;;0.80;0.80;;;24.80;48.00;28.80;93671.00;;;;10471511;28;47181;-70
2021/09/18 20:59:03;;;;;;;1.08;0.80;;;24.80;48.00;28.80;93660.00;;;;10454261;28;70514;-71
2021/09/18 21:04:23;;;;;;;0.82;0.70;;;24.80;47.90;28.80;93666.00;;;;10472895;28;52389;-69
2021/09/18 21:09:26;;;;;;;1.02;0.80;;;24.80;47.90;28.80;93654.00;;;;10475766;28;45648;-70
2021/09/18 21:14:27;;;;;;;1.13;0.75;;;24.80;47.80;28.80;93667.00;;;;10461401;28;46936;-70
2021/09/18 21:19:27;;;;;;;1.20;0.90;;;24.80;47.90;28.80;93657.00;;;;10461343;28;47585;-71
2021/09/18 21:24:29;;;;;;;1.77;0.80;;;24.70;47.80;28.80;93646.00;;;;10460045;28;74266;-70
2021/09/18 21:29:29;;;;;;;1.35;0.90;;;24.70;47.80;28.80;93644.00;;;;10461265;28;47991;-69
2021/09/18 21:34:30;;;;;;;0.73;0.70;;;24.70;47.70;28.80;93645.00;;;;10460757;28;47370;-70
2021/09/18 21:39:31;;;;;;;1.00;0.80;;;24.70;47.80;28.80;93644.00;;;;10459407;28;75828;-69
2021/09/18 21:44:32;;;;;;;1.13;0.80;;;24.70;47.70;28.80;93632.00;;;;10476491;28;47154;-69
2021/09/18 21:49:33;;;;;;;1.55;0.70;;;24.70;47.70;28.80;93630.00;;;;10477716;28;74761;-70
2021/09/18 21:54:33;;;;;;;0.98;0.80;;;24.70;47.70;28.80;93627.00;;;;10477375;28;48881;-70
2021/09/18 21:59:34;;;;;;;1.00;0.80;;;24.70;47.70;28.80;93635.00;;;;10476230;28;75654;-69
2021/09/18 22:04:35;;;;;;;0.75;0.70;;;24.60;48.30;28.70;93640.00;;;;10460847;28;47270;-70
2021/09/18 22:09:36;;;;;;;0.70;0.70;;;24.70;47.60;28.70;93632.00;;;;10461629;28;48178;-69
2021/09/18 22:14:36;;;;;;;1.00;0.80;;;24.70;47.60;28.70;93645.00;;;;10477742;28;45420;-70